createdAt,value
2019-06-26T00:01:14.587Z,22.80
2019-06-26T00:05:21.526Z,22.70
2019-06-26T00:09:27.954Z,22.70
2019-06-26T00:13:34.678Z,22.70
2019-06-26T00:17:42.110Z,22.70
2019-06-26T00:21:49.814Z,22.70
2019-06-26T00:25:56.187Z,22.70
2019-06-26T00:30:04.286Z,22.70
2019-06-26T00:34:10.883Z,22.60
2019-06-26T00:38:18.251Z,22.60
2019-06-26T00:42:25.393Z,22.50
2019-06-26T00:46:31.850Z,22.40
2019-06-26T00:50:38.174Z,22.40
2019-06-26T00:54:44.450Z,22.30
2019-06-26T00:58:50.706Z,22.20
2019-06-26T01:02:57.067Z,22.10
2019-06-26T01:07:03.310Z,22.00
2019-06-26T01:11:11.482Z,22.00
2019-06-26T01:15:17.961Z,22.00
2019-06-26T01:19:24.409Z,21.90
2019-06-26T01:23:30.827Z,21.80
2019-06-26T01:27:38.277Z,21.70
2019-06-26T01:31:44.703Z,21.70
2019-06-26T01:35:52.826Z,21.60
2019-06-26T01:39:59.125Z,21.60
2019-06-26T01:44:14.725Z,21.50
2019-06-26T01:48:14.806Z,21.50
2019-06-26T01:52:22.098Z,21.60
2019-06-26T01:56:37.500Z,21.60
2019-06-26T02:00:43.767Z,21.70
2019-06-26T02:04:50.409Z,21.70
2019-06-26T02:08:57.258Z,21.60
2019-06-26T02:13:03.889Z,21.50
2019-06-26T02:17:10.147Z,21.50
2019-06-26T02:21:17.161Z,21.40
2019-06-26T02:25:23.408Z,21.30
2019-06-26T02:29:30.556Z,21.20
2019-06-26T02:33:41.422Z,21.10
2019-06-26T02:37:49.621Z,21.00
2019-06-26T02:41:57.553Z,20.90
2019-06-26T02:46:04.404Z,20.80
2019-06-26T02:50:11.950Z,20.70
2019-06-26T02:54:30.586Z,20.70
2019-06-26T02:58:49.862Z,20.70
2019-06-26T03:02:56.338Z,20.70
2019-06-26T03:07:04.609Z,20.70
2019-06-26T03:11:10.922Z,20.70
2019-06-26T03:15:17.710Z,20.80
2019-06-26T03:19:28.729Z,20.80
2019-06-26T03:23:36.061Z,20.90
2019-06-26T03:27:42.400Z,21.00
2019-06-26T03:31:52.650Z,21.20
2019-06-26T03:35:58.918Z,21.40
2019-06-26T03:40:06.986Z,21.70
2019-06-26T03:44:13.549Z,21.90
2019-06-26T03:48:24.003Z,22.20
2019-06-26T03:52:31.179Z,22.80
2019-06-26T03:56:56.417Z,23.80
2019-06-26T04:01:04.040Z,24.90
2019-06-26T04:05:10.423Z,25.80
2019-06-26T04:09:16.932Z,26.60
2019-06-26T04:13:24.117Z,27.60
2019-06-26T04:17:30.537Z,28.70
2019-06-26T04:21:36.905Z,29.90
2019-06-26T04:25:43.287Z,30.90
2019-06-26T04:29:50.065Z,31.70
2019-06-26T04:33:56.494Z,32.50
2019-06-26T04:38:04.197Z,33.40
2019-06-26T04:42:11.002Z,34.30
2019-06-26T04:46:17.465Z,35.30
2019-06-26T04:50:26.301Z,36.70
2019-06-26T04:54:32.609Z,37.80
2019-06-26T04:58:39.085Z,38.80
2019-06-26T05:02:45.536Z,39.70
2019-06-26T05:07:07.496Z,40.00
2019-06-26T05:11:20.493Z,40.60
2019-06-26T05:15:27.526Z,41.50
2019-06-26T05:19:34.222Z,42.20
2019-06-26T05:23:41.737Z,42.80
2019-06-26T05:27:48.209Z,43.20
2019-06-26T05:31:54.662Z,44.00
2019-06-26T05:36:01.153Z,44.90
2019-06-26T05:40:10.432Z,45.20
2019-06-26T05:44:17.057Z,45.80
2019-06-26T05:48:24.753Z,46.40
2019-06-26T05:52:31.200Z,47.20
2019-06-26T05:56:37.794Z,46.10
2019-06-26T06:00:44.350Z,45.80
2019-06-26T06:04:50.772Z,46.50
2019-06-26T06:08:57.585Z,47.30
2019-06-26T06:13:03.910Z,47.90
2019-06-26T06:17:10.520Z,48.20
2019-06-26T06:21:17.236Z,49.00
2019-06-26T06:25:24.737Z,49.50
2019-06-26T06:29:31.476Z,49.20
2019-06-26T06:33:37.946Z,49.40
2019-06-26T06:37:44.297Z,49.70
2019-06-26T06:41:52.041Z,49.60
2019-06-26T06:45:59.958Z,50.10
2019-06-26T06:50:08.438Z,50.20
2019-06-26T06:54:14.851Z,51.20
2019-06-26T06:58:21.405Z,51.70
2019-06-26T07:02:29.267Z,52.70
2019-06-26T07:06:35.732Z,52.70
2019-06-26T07:10:42.070Z,52.70
2019-06-26T07:14:48.598Z,53.40
2019-06-26T07:18:54.822Z,52.80
2019-06-26T07:23:01.069Z,52.60
2019-06-26T07:27:07.685Z,52.20
2019-06-26T07:31:14.193Z,52.10
2019-06-26T07:35:20.517Z,52.20
2019-06-26T07:39:26.788Z,53.40
2019-06-26T07:43:33.218Z,54.20
2019-06-26T07:47:43.657Z,54.30
2019-06-26T07:51:48.632Z,54.80
2019-06-26T07:55:54.921Z,55.00
2019-06-26T08:00:02.164Z,55.70
2019-06-26T08:04:09.342Z,55.70
2019-06-26T08:08:16.033Z,55.30
2019-06-26T08:12:22.523Z,55.20
2019-06-26T08:16:29.057Z,55.30
2019-06-26T08:20:51.623Z,55.90
2019-06-26T08:24:43.410Z,56.40
2019-06-26T08:28:49.836Z,57.20
2019-06-26T08:32:58.978Z,56.70
2019-06-26T08:37:25.279Z,56.10
2019-06-26T08:41:31.637Z,56.10
2019-06-26T08:45:37.879Z,56.20
2019-06-26T08:49:44.189Z,55.80
2019-06-26T08:53:50.736Z,55.10
2019-06-26T08:57:57.346Z,54.60
2019-06-26T09:02:03.621Z,55.00
2019-06-26T09:06:09.949Z,55.50
2019-06-26T09:10:18.041Z,55.60
2019-06-26T09:14:24.470Z,55.60
2019-06-26T09:18:35.280Z,55.10
2019-06-26T09:22:38.731Z,54.50
2019-06-26T09:26:44.970Z,55.20
2019-06-26T09:30:51.266Z,55.70
2019-06-26T09:34:57.978Z,55.90
2019-06-26T09:39:07.534Z,56.00
2019-06-26T09:43:19.413Z,56.30
2019-06-26T09:47:25.657Z,56.30
2019-06-26T09:51:32.371Z,56.40
2019-06-26T09:55:38.858Z,56.50
2019-06-26T09:59:45.932Z,56.00
2019-06-26T10:03:52.151Z,56.20
2019-06-26T10:07:58.477Z,55.50
2019-06-26T10:12:04.865Z,56.00
2019-06-26T10:16:12.397Z,54.90
2019-06-26T10:20:19.640Z,53.80
2019-06-26T10:24:39.377Z,54.30
2019-06-26T10:28:45.919Z,55.50
2019-06-26T10:32:52.637Z,56.00
2019-06-26T10:37:07.630Z,55.10
2019-06-26T10:41:13.856Z,54.60
2019-06-26T10:45:37.930Z,54.40
2019-06-26T10:50:02.678Z,54.10
2019-06-26T10:54:08.974Z,54.20
2019-06-26T10:58:15.698Z,53.60
2019-06-26T11:02:22.069Z,53.30
2019-06-26T11:06:28.367Z,52.50
2019-06-26T11:10:34.691Z,51.50
2019-06-26T11:14:41.610Z,50.00
2019-06-26T11:18:48.042Z,47.50
2019-06-26T11:22:54.291Z,44.90
2019-06-26T11:27:02.115Z,43.10
2019-06-26T11:31:11.703Z,41.70
2019-06-26T11:35:36.812Z,40.80
2019-06-26T11:40:01.806Z,40.40
2019-06-26T11:44:27.085Z,39.70
2019-06-26T11:48:33.358Z,39.20
2019-06-26T11:52:41.795Z,38.80
2019-06-26T11:57:07.738Z,38.40
2019-06-26T12:01:15.923Z,38.20
2019-06-26T12:05:40.186Z,38.10
2019-06-26T12:09:47.116Z,38.00
2019-06-26T12:13:54.680Z,37.80
2019-06-26T12:18:01.085Z,37.90
2019-06-26T12:22:07.341Z,37.70
2019-06-26T12:26:13.665Z,37.60
2019-06-26T12:30:23.750Z,37.40
2019-06-26T12:34:51.791Z,37.40
2019-06-26T12:39:16.826Z,37.30
2019-06-26T12:43:23.233Z,37.30
2019-06-26T12:47:29.565Z,37.20
2019-06-26T12:51:35.996Z,37.20
2019-06-26T12:55:42.437Z,37.10
2019-06-26T12:59:57.353Z,37.00
2019-06-26T13:03:57.361Z,36.90
2019-06-26T13:08:04.877Z,36.80
2019-06-26T13:12:10.897Z,36.70
2019-06-26T13:16:17.407Z,36.60
2019-06-26T13:20:31.957Z,36.50
2019-06-26T13:24:38.152Z,36.50
2019-06-26T13:28:44.617Z,36.40
2019-06-26T13:32:50.990Z,36.50
2019-06-26T13:36:57.397Z,36.50
2019-06-26T13:41:03.710Z,36.50
2019-06-26T13:45:12.026Z,36.50
2019-06-26T13:49:20.303Z,36.40
2019-06-26T13:53:44.690Z,36.30
2019-06-26T13:57:51.206Z,36.30
2019-06-26T14:01:59.639Z,36.40
2019-06-26T14:06:05.953Z,36.30
2019-06-26T14:10:13.227Z,36.20
2019-06-26T14:14:20.562Z,36.20
2019-06-26T14:18:30.371Z,36.10
2019-06-26T14:22:37.315Z,36.00
2019-06-26T14:26:43.713Z,36.00
2019-06-26T14:30:49.961Z,36.00
2019-06-26T14:34:56.306Z,36.10
2019-06-26T14:39:02.530Z,36.00
2019-06-26T14:43:10.590Z,35.90
2019-06-26T14:47:16.991Z,35.80
2019-06-26T14:51:23.551Z,35.80
2019-06-26T14:55:29.878Z,35.70
2019-06-26T14:59:38.447Z,35.70
2019-06-26T15:03:44.783Z,35.50
2019-06-26T15:07:52.138Z,35.60
2019-06-26T15:11:58.570Z,35.50
2019-06-26T15:16:22.958Z,35.40
2019-06-26T15:20:29.271Z,35.40
2019-06-26T15:24:35.543Z,35.40
2019-06-26T15:28:46.166Z,35.40
2019-06-26T15:33:10.773Z,35.30
2019-06-26T15:37:18.629Z,35.30
2019-06-26T15:41:26.547Z,35.30
2019-06-26T15:45:51.491Z,35.30
2019-06-26T15:50:10.463Z,35.10
2019-06-26T15:54:32.906Z,35.00
2019-06-26T15:58:44.538Z,35.00
2019-06-26T16:02:53.722Z,34.90
2019-06-26T16:07:18.810Z,34.90
2019-06-26T16:11:36.733Z,34.80
2019-06-26T16:15:42.968Z,34.70
2019-06-26T16:19:49.221Z,34.50
2019-06-26T16:23:55.475Z,34.50
2019-06-26T16:28:05.863Z,34.30
2019-06-26T16:32:09.895Z,34.20
2019-06-26T16:36:16.127Z,34.10
2019-06-26T16:40:22.373Z,34.10
2019-06-26T16:44:28.631Z,34.10
2019-06-26T16:48:34.955Z,34.00
2019-06-26T16:52:49.315Z,33.90
2019-06-26T16:56:50.442Z,33.70
2019-06-26T17:00:56.826Z,33.80
2019-06-26T17:05:03.151Z,33.60
2019-06-26T17:09:09.753Z,33.50
2019-06-26T17:13:16.010Z,33.50
2019-06-26T17:17:22.290Z,33.30
2019-06-26T17:21:28.802Z,33.20
2019-06-26T17:25:36.748Z,33.20
2019-06-26T17:29:45.259Z,33.10
2019-06-26T17:33:51.515Z,33.00
2019-06-26T17:37:57.760Z,32.90
2019-06-26T17:42:04.002Z,32.90
2019-06-26T17:46:11.040Z,32.70
2019-06-26T17:50:19.074Z,32.60
2019-06-26T17:54:25.339Z,32.60
2019-06-26T17:58:31.660Z,32.40
2019-06-26T18:02:37.918Z,32.30
2019-06-26T18:06:44.154Z,32.20
2019-06-26T18:10:50.476Z,32.10
2019-06-26T18:14:56.731Z,31.90
2019-06-26T18:19:03.046Z,31.80
2019-06-26T18:23:09.300Z,31.70
2019-06-26T18:27:15.610Z,31.50
2019-06-26T18:31:21.870Z,31.40
2019-06-26T18:35:28.138Z,31.20
2019-06-26T18:39:35.465Z,31.10
2019-06-26T18:43:41.917Z,30.90
2019-06-26T18:47:48.891Z,30.80
2019-06-26T18:51:55.153Z,30.60
2019-06-26T18:56:01.691Z,30.50
2019-06-26T19:00:08.733Z,30.30
2019-06-26T19:04:15.317Z,30.20
2019-06-26T19:08:22.297Z,30.10
2019-06-26T19:12:28.582Z,29.90
2019-06-26T19:16:36.764Z,29.90
2019-06-26T19:20:43.170Z,29.70
2019-06-26T19:24:49.850Z,29.50
2019-06-26T19:28:56.220Z,29.40
2019-06-26T19:33:02.584Z,29.20
2019-06-26T19:37:10.005Z,29.00
2019-06-26T19:41:16.498Z,28.90
2019-06-26T19:45:24.547Z,28.80
2019-06-26T19:49:30.789Z,28.70
2019-06-26T19:53:38.236Z,28.50
2019-06-26T19:57:44.930Z,28.50
2019-06-26T20:01:53.028Z,28.40
2019-06-26T20:06:01.273Z,28.20
2019-06-26T20:10:11.456Z,28.10
2019-06-26T20:14:21.466Z,27.90
2019-06-26T20:18:28.551Z,27.80
2019-06-26T20:22:34.887Z,27.70
2019-06-26T20:26:48.021Z,27.60
2019-06-26T20:30:54.682Z,27.50
2019-06-26T20:35:01.085Z,27.40
2019-06-26T20:39:07.478Z,27.30
2019-06-26T20:43:15.053Z,27.20
2019-06-26T20:47:21.501Z,27.00
2019-06-26T20:51:27.973Z,26.90
2019-06-26T20:55:34.356Z,26.80
2019-06-26T20:59:40.581Z,26.70
2019-06-26T21:03:46.914Z,26.60
2019-06-26T21:07:53.233Z,26.50
2019-06-26T21:11:59.957Z,26.40
2019-06-26T21:16:06.214Z,26.30
2019-06-26T21:20:12.562Z,26.20
2019-06-26T21:24:18.870Z,26.20
2019-06-26T21:28:26.095Z,26.10
2019-06-26T21:32:32.467Z,26.10
2019-06-26T21:36:38.738Z,26.00
2019-06-26T21:40:45.146Z,26.00
2019-06-26T21:44:53.542Z,25.90
2019-06-26T21:48:59.912Z,25.90
2019-06-26T21:53:06.466Z,25.80
2019-06-26T21:57:13.715Z,25.60
2019-06-26T22:01:38.347Z,25.50
2019-06-26T22:06:03.055Z,25.30
2019-06-26T22:10:21.330Z,25.20
2019-06-26T22:14:34.498Z,25.20
2019-06-26T22:18:40.902Z,25.10
2019-06-26T22:22:47.331Z,25.00
2019-06-26T22:26:54.942Z,25.00
2019-06-26T22:31:01.172Z,24.90
2019-06-26T22:35:08.629Z,24.80
2019-06-26T22:39:18.170Z,24.80
2019-06-26T22:43:29.274Z,24.70
2019-06-26T22:47:36.794Z,24.60
2019-06-26T22:51:46.735Z,24.50
2019-06-26T22:56:06.699Z,24.50
2019-06-26T23:00:04.839Z,24.40
2019-06-26T23:04:31.082Z,24.40
2019-06-26T23:08:38.465Z,24.30
2019-06-26T23:12:48.145Z,24.30
2019-06-26T23:16:55.059Z,24.20
2019-06-26T23:21:01.499Z,24.20
2019-06-26T23:25:16.695Z,24.10
2019-06-26T23:29:23.865Z,24.00
2019-06-26T23:33:34.433Z,23.90
2019-06-26T23:37:43.515Z,23.80
2019-06-26T23:41:53.707Z,23.70
2019-06-26T23:46:00.126Z,23.70
2019-06-26T23:50:09.058Z,23.60
2019-06-26T23:54:16.982Z,23.50
2019-06-26T23:58:25.975Z,23.50
